createdAt,value
2023-06-08T00:01:13.653Z,25.70
2023-06-08T00:03:45.092Z,25.70
2023-06-08T00:06:16.487Z,25.70
2023-06-08T00:08:46.447Z,25.70
2023-06-08T00:11:14.894Z,25.70
2023-06-08T00:13:43.239Z,25.70
2023-06-08T00:16:14.353Z,25.70
2023-06-08T00:18:45.719Z,25.60
2023-06-08T00:21:15.062Z,25.70
2023-06-08T00:23:43.538Z,25.60
2023-06-08T00:26:13.378Z,25.60
2023-06-08T00:28:42.481Z,25.60
2023-06-08T00:31:11.135Z,25.60
2023-06-08T00:33:40.764Z,25.60
2023-06-08T00:36:09.480Z,25.60
2023-06-08T00:38:37.806Z,25.60
2023-06-08T00:41:07.776Z,25.60
2023-06-08T00:43:37.930Z,25.60
2023-06-08T00:48:37.115Z,25.60
2023-06-08T00:51:06.102Z,25.60
2023-06-08T00:53:35.017Z,25.50
2023-06-08T00:56:04.386Z,25.50
2023-06-08T00:58:34.766Z,25.50
2023-06-08T01:01:05.179Z,25.50
2023-06-08T01:03:36.762Z,25.50
2023-06-08T01:06:14.164Z,25.50
2023-06-08T01:08:57.908Z,25.50
2023-06-08T01:11:51.520Z,25.50
2023-06-08T01:14:38.256Z,25.50
2023-06-08T01:17:13.809Z,25.50
2023-06-08T01:19:59.218Z,25.50
2023-06-08T01:22:30.986Z,25.50
2023-06-08T01:25:02.313Z,25.50
2023-06-08T01:27:38.102Z,25.50
2023-06-08T01:30:07.962Z,25.50
2023-06-08T01:32:38.763Z,25.40
2023-06-08T01:35:09.124Z,25.40
2023-06-08T01:37:49.246Z,25.40
2023-06-08T01:40:26.941Z,25.40
2023-06-08T01:42:56.456Z,25.40
2023-06-08T01:45:28.760Z,25.40
2023-06-08T01:48:04.059Z,25.40
2023-06-08T01:50:33.675Z,25.40
2023-06-08T01:53:02.333Z,25.40
2023-06-08T01:55:32.040Z,25.40
2023-06-08T01:58:00.486Z,25.40
2023-06-08T02:00:29.067Z,25.40
2023-06-08T02:02:57.562Z,25.40
2023-06-08T02:05:26.433Z,25.40
2023-06-08T02:07:54.814Z,25.40
2023-06-08T02:10:24.329Z,25.30
2023-06-08T02:12:54.080Z,25.30
2023-06-08T02:15:22.633Z,25.30
2023-06-08T02:17:51.032Z,25.30
2023-06-08T02:20:19.575Z,25.30
2023-06-08T02:22:47.936Z,25.30
2023-06-08T02:25:16.780Z,25.30
2023-06-08T02:27:45.792Z,25.30
2023-06-08T02:30:16.656Z,25.30
2023-06-08T02:32:47.385Z,25.30
2023-06-08T02:35:16.463Z,25.30
2023-06-08T02:37:47.339Z,25.30
2023-06-08T02:40:15.785Z,25.30
2023-06-08T02:42:44.946Z,25.30
2023-06-08T02:45:18.026Z,25.30
2023-06-08T02:47:47.120Z,25.30
2023-06-08T02:50:16.413Z,25.20
2023-06-08T02:52:44.931Z,25.20
2023-06-08T02:55:13.434Z,25.20
2023-06-08T02:57:41.971Z,25.20
2023-06-08T03:00:15.266Z,25.20
2023-06-08T03:03:01.736Z,25.20
2023-06-08T03:05:35.325Z,25.20
2023-06-08T03:08:04.226Z,25.20
2023-06-08T03:10:33.348Z,25.20
2023-06-08T03:13:04.595Z,25.20
2023-06-08T03:15:33.631Z,25.20
2023-06-08T03:18:05.599Z,25.10
2023-06-08T03:20:35.277Z,25.10
2023-06-08T03:23:11.842Z,25.10
2023-06-08T03:25:45.330Z,25.10
2023-06-08T03:28:15.068Z,25.10
2023-06-08T03:30:44.301Z,25.10
2023-06-08T03:33:16.155Z,25.10
2023-06-08T03:35:50.959Z,25.10
2023-06-08T03:38:25.265Z,25.10
2023-06-08T03:40:56.495Z,25.10
2023-06-08T03:43:24.844Z,25.10
2023-06-08T03:45:53.692Z,25.10
2023-06-08T03:48:23.565Z,25.10
2023-06-08T03:50:53.257Z,25.10
2023-06-08T03:53:23.129Z,25.10
2023-06-08T03:55:51.480Z,25.10
2023-06-08T03:58:19.820Z,25.10
2023-06-08T04:00:50.331Z,25.10
2023-06-08T04:03:18.965Z,25.10
2023-06-08T04:05:50.101Z,25.10
2023-06-08T04:08:19.126Z,25.10
2023-06-08T04:10:47.497Z,25.00
2023-06-08T04:13:16.465Z,25.00
2023-06-08T04:15:46.216Z,25.10
2023-06-08T04:18:15.108Z,25.10
2023-06-08T04:20:43.533Z,25.10
2023-06-08T04:23:16.741Z,25.10
2023-06-08T04:25:47.310Z,25.10
2023-06-08T04:28:16.529Z,25.10
2023-06-08T04:30:46.072Z,25.10
2023-06-08T04:33:15.053Z,25.10
2023-06-08T04:35:44.479Z,25.10
2023-06-08T04:38:17.000Z,25.20
2023-06-08T04:40:51.209Z,25.20
2023-06-08T04:43:22.011Z,25.20
2023-06-08T04:45:58.753Z,25.30
2023-06-08T04:48:28.787Z,25.30
2023-06-08T04:51:03.224Z,25.40
2023-06-08T04:53:34.668Z,25.40
2023-06-08T04:56:04.054Z,25.40
2023-06-08T04:58:33.572Z,25.50
2023-06-08T05:01:02.139Z,25.50
2023-06-08T05:03:30.741Z,25.50
2023-06-08T05:05:59.320Z,25.60
2023-06-08T05:08:27.787Z,25.60
2023-06-08T05:10:57.523Z,25.70
2023-06-08T05:13:25.854Z,25.70
2023-06-08T05:15:55.620Z,25.70
2023-06-08T05:18:23.921Z,25.80
2023-06-08T05:20:52.237Z,25.80
2023-06-08T05:23:20.571Z,25.80
2023-06-08T05:25:49.441Z,26.00
2023-06-08T05:28:19.871Z,26.60
2023-06-08T05:30:48.659Z,27.30
2023-06-08T05:33:17.055Z,27.90
2023-06-08T05:35:45.434Z,28.00
2023-06-08T05:38:13.820Z,27.70
2023-06-08T05:40:43.363Z,27.20
2023-06-08T05:43:11.772Z,26.90
2023-06-08T05:45:41.510Z,26.70
2023-06-08T05:48:10.455Z,26.60
2023-06-08T05:50:38.903Z,26.50
2023-06-08T05:53:07.296Z,26.40
2023-06-08T05:55:35.832Z,26.40
2023-06-08T05:58:04.194Z,26.40
2023-06-08T06:00:32.606Z,26.40
2023-06-08T06:03:04.273Z,26.40
2023-06-08T06:05:32.965Z,26.40
2023-06-08T06:08:01.362Z,26.40
2023-06-08T06:10:30.378Z,26.40
2023-06-08T06:12:59.325Z,26.40
2023-06-08T06:15:28.136Z,26.40
2023-06-08T06:17:56.478Z,26.40
2023-06-08T06:20:28.452Z,26.40
2023-06-08T06:22:56.898Z,26.40
2023-06-08T06:25:29.679Z,26.40
2023-06-08T06:27:57.993Z,26.30
2023-06-08T06:30:27.500Z,26.30
2023-06-08T06:32:55.963Z,26.30
2023-06-08T06:35:25.937Z,26.20
2023-06-08T06:37:56.142Z,26.30
2023-06-08T06:40:24.496Z,26.30
2023-06-08T06:42:52.749Z,26.20
2023-06-08T06:45:28.552Z,26.20
2023-06-08T06:47:56.857Z,26.20
2023-06-08T06:50:26.953Z,26.20
2023-06-08T06:52:55.290Z,26.10
2023-06-08T06:55:23.881Z,26.10
2023-06-08T06:57:53.649Z,26.10
2023-06-08T07:00:23.248Z,26.10
2023-06-08T07:02:51.607Z,26.10
2023-06-08T07:05:20.668Z,26.10
2023-06-08T07:07:50.406Z,26.00
2023-06-08T07:10:18.822Z,26.00
2023-06-08T07:12:47.133Z,26.00
2023-06-08T07:15:15.975Z,26.10
2023-06-08T07:17:45.420Z,26.10
2023-06-08T07:20:14.473Z,26.20
2023-06-08T07:22:43.578Z,26.20
2023-06-08T07:25:57.270Z,26.30
2023-06-08T07:28:20.728Z,26.40
2023-06-08T07:30:50.144Z,26.40
2023-06-08T07:33:18.998Z,26.50
2023-06-08T07:35:47.895Z,26.50
2023-06-08T07:38:16.352Z,26.50
2023-06-08T07:40:46.288Z,26.60
2023-06-08T07:43:14.661Z,26.60
2023-06-08T07:45:43.989Z,26.70
2023-06-08T07:48:12.325Z,26.70
2023-06-08T07:50:40.720Z,26.80
2023-06-08T07:53:09.133Z,26.80
2023-06-08T07:55:37.455Z,26.80
2023-06-08T07:58:07.141Z,26.70
2023-06-08T08:00:36.598Z,26.80
2023-06-08T08:03:05.739Z,26.80
2023-06-08T08:05:34.237Z,26.80
2023-06-08T08:08:02.579Z,26.80
2023-06-08T08:10:30.930Z,26.80
2023-06-08T08:12:59.291Z,26.90
2023-06-08T08:15:29.063Z,26.90
2023-06-08T08:17:58.202Z,27.00
2023-06-08T08:20:35.659Z,27.00
2023-06-08T08:23:06.835Z,27.00
2023-06-08T08:25:36.256Z,27.10
2023-06-08T08:28:04.689Z,27.10
2023-06-08T08:30:33.016Z,27.10
2023-06-08T08:33:01.955Z,27.10
2023-06-08T08:35:32.749Z,27.10
2023-06-08T08:38:02.432Z,27.10
2023-06-08T08:40:30.698Z,27.10
2023-06-08T08:43:07.534Z,27.00
2023-06-08T08:45:37.669Z,27.00
2023-06-08T08:48:09.254Z,27.00
2023-06-08T08:50:40.142Z,27.00
2023-06-08T08:53:12.018Z,27.00
2023-06-08T08:55:42.754Z,27.10
2023-06-08T08:58:12.406Z,27.10
2023-06-08T09:00:42.377Z,27.10
2023-06-08T09:03:10.744Z,27.10
2023-06-08T09:05:39.155Z,27.20
2023-06-08T09:08:07.498Z,27.20
2023-06-08T09:10:37.290Z,27.20
2023-06-08T09:13:05.708Z,27.20
2023-06-08T09:15:38.103Z,27.20
2023-06-08T09:18:17.884Z,27.20
2023-06-08T09:20:46.673Z,27.30
2023-06-08T09:27:53.640Z,27.30
2023-06-08T09:30:25.738Z,27.30
2023-06-08T09:32:54.271Z,27.30
2023-06-08T09:35:26.045Z,27.30
2023-06-08T09:37:55.826Z,27.40
2023-06-08T09:40:26.328Z,27.30
2023-06-08T09:42:56.651Z,27.30
2023-06-08T09:45:25.070Z,27.30
2023-06-08T09:47:53.505Z,27.30
2023-06-08T09:50:22.950Z,27.30
2023-06-08T09:52:52.656Z,27.40
2023-06-08T09:55:23.074Z,27.40
2023-06-08T09:57:55.154Z,27.40
2023-06-08T10:00:27.491Z,27.40
2023-06-08T10:03:08.303Z,27.40
2023-06-08T10:05:40.955Z,27.40
2023-06-08T10:08:13.382Z,27.50
2023-06-08T10:10:42.736Z,27.50
2023-06-08T10:13:13.035Z,27.50
2023-06-08T10:15:43.530Z,27.50
2023-06-08T10:18:12.508Z,27.50
2023-06-08T10:20:41.866Z,27.50
2023-06-08T10:23:11.010Z,27.40
2023-06-08T10:25:41.921Z,27.40
2023-06-08T10:28:11.815Z,27.40
2023-06-08T10:30:43.097Z,27.30
2023-06-08T10:33:13.005Z,27.30
2023-06-08T10:35:42.617Z,27.30
2023-06-08T10:38:16.121Z,27.30
2023-06-08T10:40:46.627Z,27.20
2023-06-08T10:46:42.318Z,27.20
2023-06-08T10:49:33.895Z,27.20
2023-06-08T10:52:23.574Z,27.20
2023-06-08T10:55:15.027Z,27.10
2023-06-08T10:58:17.454Z,27.20
2023-06-08T11:01:07.611Z,27.10
2023-06-08T11:04:02.835Z,27.10
2023-06-08T11:06:53.665Z,27.10
2023-06-08T11:09:22.051Z,27.10
2023-06-08T11:11:53.768Z,27.10
2023-06-08T11:14:22.339Z,27.10
2023-06-08T11:16:52.325Z,27.10
2023-06-08T11:19:22.488Z,27.10
2023-06-08T11:21:53.740Z,27.10
2023-06-08T11:24:22.156Z,27.10
2023-06-08T11:27:03.192Z,27.10
2023-06-08T11:29:32.817Z,27.10
2023-06-08T11:32:12.327Z,27.00
2023-06-08T11:34:51.074Z,27.00
2023-06-08T11:37:21.868Z,27.00
2023-06-08T11:39:50.579Z,27.00
2023-06-08T11:42:19.279Z,27.00
2023-06-08T11:44:50.411Z,27.00
2023-06-08T11:47:19.002Z,27.00
2023-06-08T11:49:54.515Z,26.90
2023-06-08T11:52:23.812Z,26.80
2023-06-08T11:54:54.269Z,26.80
2023-06-08T11:57:23.395Z,26.90
2023-06-08T11:59:51.861Z,26.80
2023-06-08T12:02:23.714Z,26.80
2023-06-08T12:04:52.046Z,26.80
2023-06-08T12:07:22.678Z,26.80
2023-06-08T12:09:51.728Z,26.80
2023-06-08T12:12:20.109Z,26.80
2023-06-08T12:14:49.629Z,26.70
2023-06-08T12:17:18.321Z,26.70
2023-06-08T12:19:47.348Z,26.70
2023-06-08T12:22:16.082Z,26.70
2023-06-08T12:24:45.713Z,26.70
2023-06-08T12:27:14.577Z,26.70
2023-06-08T12:29:43.878Z,26.70
2023-06-08T12:32:12.517Z,26.70
2023-06-08T12:34:40.909Z,26.70
2023-06-08T12:37:09.727Z,26.70
2023-06-08T12:39:38.089Z,26.70
2023-06-08T12:42:08.976Z,26.80
2023-06-08T12:44:37.241Z,26.80
2023-06-08T12:47:05.959Z,26.80
2023-06-08T12:49:34.537Z,26.80
2023-06-08T12:52:02.884Z,26.90
2023-06-08T12:54:31.276Z,26.90
2023-06-08T12:56:59.533Z,26.90
2023-06-08T12:59:29.214Z,27.00
2023-06-08T13:01:58.276Z,27.00
2023-06-08T13:04:30.262Z,27.00
2023-06-08T13:06:59.019Z,27.00
2023-06-08T13:09:27.399Z,27.00
2023-06-08T13:11:55.824Z,27.10
2023-06-08T13:14:24.183Z,27.10
2023-06-08T13:16:53.890Z,27.10
2023-06-08T13:19:22.313Z,27.10
2023-06-08T13:21:51.000Z,27.10
2023-06-08T13:24:19.336Z,27.10
2023-06-08T13:26:49.055Z,27.10
2023-06-08T13:29:17.902Z,27.10
2023-06-08T13:31:46.659Z,27.10
2023-06-08T13:34:16.389Z,27.10
2023-06-08T13:36:44.801Z,27.10
2023-06-08T13:39:13.123Z,27.10
2023-06-08T13:41:41.378Z,27.10
2023-06-08T13:44:09.704Z,27.10
2023-06-08T13:46:38.146Z,27.20
2023-06-08T13:49:06.854Z,27.20
2023-06-08T13:51:37.229Z,27.20
2023-06-08T13:54:06.452Z,27.20
2023-06-08T13:56:34.848Z,27.20
2023-06-08T13:59:04.601Z,27.20
2023-06-08T14:01:33.179Z,27.20
2023-06-08T14:04:01.552Z,27.20
2023-06-08T14:06:29.802Z,27.30
2023-06-08T14:09:00.886Z,27.30
2023-06-08T14:11:29.240Z,27.30
2023-06-08T14:13:58.181Z,27.30
2023-06-08T14:16:26.924Z,27.30
2023-06-08T14:18:55.953Z,27.30
2023-06-08T14:21:24.568Z,27.30
2023-06-08T14:23:53.788Z,27.30
2023-06-08T14:26:25.965Z,27.30
2023-06-08T14:28:54.294Z,27.30
2023-06-08T14:31:22.598Z,27.30
2023-06-08T14:33:51.534Z,27.30
2023-06-08T14:36:19.845Z,27.40
2023-06-08T14:38:49.462Z,27.40
2023-06-08T14:41:17.969Z,27.40
2023-06-08T14:43:52.180Z,27.40
2023-06-08T14:46:20.838Z,27.30
2023-06-08T14:48:49.244Z,27.30
2023-06-08T14:51:36.234Z,27.40
2023-06-08T14:54:05.979Z,27.40
2023-06-08T14:56:34.304Z,27.40
2023-06-08T14:59:04.041Z,27.40
2023-06-08T15:01:34.843Z,27.30
2023-06-08T15:04:05.316Z,27.40
2023-06-08T15:06:33.782Z,27.30
2023-06-08T15:09:02.138Z,27.30
2023-06-08T15:11:30.453Z,27.30
2023-06-08T15:14:00.080Z,27.30
2023-06-08T15:16:30.037Z,27.30
2023-06-08T15:18:58.443Z,27.30
2023-06-08T15:21:26.772Z,27.30
2023-06-08T15:23:55.075Z,27.30
2023-06-08T15:26:23.465Z,27.30
2023-06-08T15:28:52.107Z,27.30
2023-06-08T15:31:20.706Z,27.30
2023-06-08T15:33:50.399Z,27.20
2023-06-08T15:36:18.922Z,27.30
2023-06-08T15:38:47.245Z,27.20
2023-06-08T15:41:15.596Z,27.20
2023-06-08T15:43:43.983Z,27.20
2023-06-08T15:46:13.552Z,27.20
2023-06-08T15:48:41.916Z,27.20
2023-06-08T15:51:13.041Z,27.20
2023-06-08T15:53:41.343Z,27.20
2023-06-08T15:56:09.645Z,27.20
2023-06-08T15:58:37.923Z,27.20
2023-06-08T16:01:06.296Z,27.20
2023-06-08T16:03:34.639Z,27.20
2023-06-08T16:06:02.931Z,27.20
2023-06-08T16:08:32.497Z,27.20
2023-06-08T16:11:00.882Z,27.10
2023-06-08T16:13:29.121Z,27.10
2023-06-08T16:15:57.454Z,27.10
2023-06-08T16:18:26.190Z,27.10
2023-06-08T16:20:55.352Z,27.10
2023-06-08T16:23:23.734Z,27.10
2023-06-08T16:25:53.433Z,27.00
2023-06-08T16:28:21.712Z,27.00
2023-06-08T16:30:50.097Z,27.00
2023-06-08T16:33:18.856Z,27.00
2023-06-08T16:35:49.937Z,27.00
2023-06-08T16:38:20.429Z,27.00
2023-06-08T16:40:48.750Z,27.00
2023-06-08T16:43:18.433Z,27.00
2023-06-08T16:45:46.919Z,27.00
2023-06-08T16:48:15.286Z,27.00
2023-06-08T16:50:43.635Z,27.00
2023-06-08T16:53:11.950Z,27.00
2023-06-08T16:55:40.415Z,27.00
2023-06-08T16:58:08.665Z,27.00
2023-06-08T17:00:38.323Z,27.00
2023-06-08T17:03:06.653Z,26.90
2023-06-08T17:05:35.055Z,26.90
2023-06-08T17:08:03.351Z,26.90
2023-06-08T17:10:31.658Z,26.90
2023-06-08T17:12:59.885Z,26.90
2023-06-08T17:15:28.181Z,26.90
2023-06-08T17:17:57.854Z,26.90
2023-06-08T17:20:26.320Z,26.90
2023-06-08T17:22:54.680Z,26.90
2023-06-08T17:25:23.003Z,26.90
2023-06-08T17:27:51.286Z,26.90
2023-06-08T17:30:19.609Z,26.90
2023-06-08T17:32:47.925Z,26.80
2023-06-08T17:35:17.668Z,26.80
2023-06-08T17:37:45.951Z,26.80
2023-06-08T17:40:14.654Z,26.80
2023-06-08T17:42:44.596Z,26.80
2023-06-08T17:45:12.916Z,26.80
2023-06-08T17:47:41.231Z,26.80
2023-06-08T17:50:10.116Z,26.80
2023-06-08T17:52:39.786Z,26.80
2023-06-08T17:55:09.394Z,26.80
2023-06-08T17:57:38.011Z,26.80
2023-06-08T18:00:08.301Z,26.80
2023-06-08T18:02:36.769Z,26.80
2023-06-08T18:05:05.661Z,26.80
2023-06-08T18:07:34.212Z,26.70
2023-06-08T18:10:04.521Z,26.70
2023-06-08T18:12:33.175Z,26.70
2023-06-08T18:15:01.523Z,26.70
2023-06-08T18:17:29.955Z,26.70
2023-06-08T18:19:58.852Z,26.70
2023-06-08T18:22:27.558Z,26.70
2023-06-08T18:24:55.902Z,26.70
2023-06-08T18:27:25.872Z,26.70
2023-06-08T18:29:54.155Z,26.60
2023-06-08T18:32:22.500Z,26.60
2023-06-08T18:34:50.770Z,26.60
2023-06-08T18:37:19.025Z,26.60
2023-06-08T18:39:57.772Z,26.60
2023-06-08T18:42:28.434Z,26.60
2023-06-08T18:44:59.790Z,26.60
2023-06-08T18:47:29.473Z,26.60
2023-06-08T18:49:57.811Z,26.50
2023-06-08T18:52:26.132Z,26.60
2023-06-08T18:54:54.596Z,26.50
2023-06-08T18:57:22.933Z,26.50
2023-06-08T18:59:52.726Z,26.50
2023-06-08T19:02:21.405Z,26.50
2023-06-08T19:04:49.801Z,26.50
2023-06-08T19:07:23.191Z,26.50
2023-06-08T19:09:52.957Z,26.40
2023-06-08T19:12:22.204Z,26.50
2023-06-08T19:14:52.097Z,26.50
2023-06-08T19:17:20.546Z,26.40
2023-06-08T19:19:49.734Z,26.40
2023-06-08T19:22:18.133Z,26.40
2023-06-08T19:24:46.464Z,26.40
2023-06-08T19:27:19.796Z,26.40
2023-06-08T19:29:48.376Z,26.40
2023-06-08T19:32:18.340Z,26.40
2023-06-08T19:34:46.701Z,26.40
2023-06-08T19:37:15.125Z,26.40
2023-06-08T19:39:43.514Z,26.40
2023-06-08T19:42:11.900Z,26.40
2023-06-08T19:44:41.012Z,26.40
2023-06-08T19:47:09.554Z,26.30
2023-06-08T19:49:39.322Z,26.30
2023-06-08T19:52:09.363Z,26.30
2023-06-08T19:54:38.080Z,26.30
2023-06-08T19:57:08.189Z,26.30
2023-06-08T19:59:39.472Z,26.30
2023-06-08T20:02:11.047Z,26.30
2023-06-08T20:04:40.909Z,26.30
2023-06-08T20:07:13.743Z,26.30
2023-06-08T20:09:44.259Z,26.30
2023-06-08T20:12:13.298Z,26.30
2023-06-08T20:14:41.790Z,26.30
2023-06-08T20:17:10.443Z,26.20
2023-06-08T20:19:40.443Z,26.30
2023-06-08T20:22:09.028Z,26.20
2023-06-08T20:24:40.372Z,26.20
2023-06-08T20:27:09.258Z,26.20
2023-06-08T20:29:38.178Z,26.20
2023-06-08T20:32:10.679Z,26.20
2023-06-08T20:34:40.628Z,26.20
2023-06-08T20:37:09.316Z,26.20
2023-06-08T20:39:38.503Z,26.20
2023-06-08T20:42:07.862Z,26.20
2023-06-08T20:44:37.341Z,26.20
2023-06-08T20:47:06.603Z,26.10
2023-06-08T20:49:36.253Z,26.10
2023-06-08T20:52:08.408Z,26.10
2023-06-08T20:54:36.894Z,26.10
2023-06-08T20:57:07.427Z,26.10
2023-06-08T20:59:36.386Z,26.10
2023-06-08T21:02:04.932Z,26.10
2023-06-08T21:04:35.192Z,26.10
2023-06-08T21:07:04.334Z,26.10
2023-06-08T21:09:34.045Z,26.10
2023-06-08T21:12:03.666Z,26.00
2023-06-08T21:14:31.940Z,26.10
2023-06-08T21:17:00.346Z,26.10
2023-06-08T21:19:28.679Z,26.00
2023-06-08T21:21:56.940Z,26.00
2023-06-08T21:24:28.030Z,26.00
2023-06-08T21:26:58.632Z,26.00
2023-06-08T21:29:27.382Z,26.00
2023-06-08T21:31:56.330Z,26.00
2023-06-08T21:34:26.053Z,26.00
2023-06-08T21:36:55.601Z,26.00
2023-06-08T21:39:24.686Z,26.00
2023-06-08T21:41:53.193Z,26.00
2023-06-08T21:44:22.907Z,25.90
2023-06-08T21:46:52.211Z,26.00
2023-06-08T21:49:20.654Z,25.90
2023-06-08T21:51:49.923Z,25.90
2023-06-08T21:54:18.617Z,25.90
2023-06-08T21:56:46.910Z,25.90
2023-06-08T21:59:15.492Z,25.90
2023-06-08T22:01:45.232Z,25.90
2023-06-08T22:04:13.573Z,25.90
2023-06-08T22:06:41.921Z,25.90
2023-06-08T22:09:10.939Z,25.90
2023-06-08T22:11:39.206Z,25.80
2023-06-08T22:14:07.647Z,25.90
2023-06-08T22:16:38.481Z,25.90
2023-06-08T22:19:09.468Z,25.80
2023-06-08T22:21:38.113Z,25.80
2023-06-08T22:24:07.111Z,25.80
2023-06-08T22:26:35.494Z,25.80
2023-06-08T22:29:04.738Z,25.80
2023-06-08T22:31:34.806Z,25.80
2023-06-08T22:34:03.170Z,25.80
2023-06-08T22:36:33.837Z,25.80
2023-06-08T22:39:02.205Z,25.80
2023-06-08T22:41:30.499Z,25.80
2023-06-08T22:43:58.775Z,25.80
2023-06-08T22:46:27.279Z,25.80
2023-06-08T22:48:55.589Z,25.80
2023-06-08T22:51:23.872Z,25.80
2023-06-08T22:53:53.504Z,25.70
2023-06-08T22:56:22.123Z,25.80
2023-06-08T22:58:50.384Z,25.70
2023-06-08T23:01:20.027Z,25.70
2023-06-08T23:03:48.638Z,25.70
2023-06-08T23:06:16.919Z,25.70
2023-06-08T23:08:49.241Z,25.70
2023-06-08T23:11:19.243Z,25.70
2023-06-08T23:13:47.896Z,25.70
2023-06-08T23:16:17.723Z,25.70
2023-06-08T23:18:46.183Z,25.70
2023-06-08T23:21:18.777Z,25.70
2023-06-08T23:23:47.202Z,25.60
2023-06-08T23:26:15.459Z,25.60
2023-06-08T23:28:45.110Z,25.60
2023-06-08T23:31:15.295Z,25.60
2023-06-08T23:33:43.730Z,25.60
2023-06-08T23:36:11.980Z,25.60
2023-06-08T23:38:40.213Z,25.60
2023-06-08T23:41:08.801Z,25.60
2023-06-08T23:43:37.331Z,25.60
2023-06-08T23:46:07.743Z,25.60
2023-06-08T23:48:36.841Z,25.50
2023-06-08T23:51:05.878Z,25.50
2023-06-08T23:53:34.194Z,25.50
2023-06-08T23:56:02.501Z,25.50
2023-06-08T23:58:30.986Z,25.50
